createdAt,value
2023-02-19T00:00:51.082Z,97551.69
2023-02-19T00:01:52.491Z,97548.73
2023-02-19T00:02:52.347Z,97555.85
2023-02-19T00:03:54.531Z,97551.42
2023-02-19T00:04:52.573Z,97548.2
2023-02-19T00:05:53.061Z,97551.63
2023-02-19T00:06:53.074Z,97548.69
2023-02-19T00:07:53.702Z,97561.41
2023-02-19T00:08:54.011Z,97553.27
2023-02-19T00:09:54.111Z,97562.97
2023-02-19T00:10:54.433Z,97561.08
2023-02-19T00:11:54.952Z,97559.61
2023-02-19T00:12:55.360Z,97555.84
2023-02-19T00:13:56.899Z,97555.42
2023-02-19T00:14:55.781Z,97563.22
2023-02-19T00:15:56.217Z,97563.23
2023-02-19T00:16:56.516Z,97564.19
2023-02-19T00:17:56.942Z,97568.28
2023-02-19T00:18:59.300Z,97572.15
2023-02-19T00:19:58.096Z,97566.36
2023-02-19T00:20:57.879Z,97568.98
2023-02-19T00:21:58.293Z,97558.81
2023-02-19T00:22:58.399Z,97572.38
2023-02-19T00:24:01.600Z,97569.8
2023-02-19T00:24:59.128Z,97566.65
2023-02-19T00:26:17.732Z,97582.7
2023-02-19T00:27:01.105Z,97569.15
2023-02-19T00:28:01.507Z,97573.22
2023-02-19T00:29:02.447Z,97572.91
2023-02-19T00:30:02.299Z,97574.27
2023-02-19T00:32:07.134Z,97580.03
2023-02-19T00:33:07.283Z,97586.19
2023-02-19T00:34:08.170Z,97577.88
2023-02-19T00:35:08.323Z,97577.3
2023-02-19T00:36:08.521Z,97577.41
2023-02-19T00:37:08.632Z,97580.95
2023-02-19T00:38:09.049Z,97584.2
2023-02-19T00:39:12.880Z,97581.14
2023-02-19T00:40:10.899Z,97586.96
2023-02-19T00:41:12.355Z,97589.13
2023-02-19T00:42:10.920Z,97593.88
2023-02-19T00:43:11.442Z,97587.14
2023-02-19T00:44:12.377Z,97579.78
2023-02-19T00:45:12.058Z,97593.02
2023-02-19T00:46:12.527Z,97597.34
2023-02-19T00:47:12.693Z,97595.16
2023-02-19T00:48:12.921Z,97598.58
2023-02-19T00:50:15.470Z,97609.38
2023-02-19T00:51:16.014Z,97591.94
2023-02-19T00:52:15.505Z,97598.48
2023-02-19T00:53:16.113Z,97605.59
2023-02-19T00:54:16.943Z,97614.45
2023-02-19T00:55:16.978Z,97605.34
2023-02-19T00:56:17.548Z,97604.98
2023-02-19T00:57:17.374Z,97604.95
2023-02-19T00:58:17.664Z,97601.55
2023-02-19T00:59:18.207Z,97603.78
2023-02-19T01:00:18.727Z,97605.69
2023-02-19T01:01:19.771Z,97607.46
2023-02-19T01:02:18.828Z,97553.02
2023-02-19T01:03:19.654Z,97610.45
2023-02-19T01:04:19.625Z,97605.87
2023-02-19T01:05:20.201Z,97614.34
2023-02-19T01:06:21.232Z,97606.45
2023-02-19T01:07:20.707Z,97608.3
2023-02-19T01:08:21.326Z,97605.23
2023-02-19T01:09:21.141Z,97596.17
2023-02-19T01:10:21.942Z,97605.17
2023-02-19T01:11:21.872Z,97614.66
2023-02-19T01:12:22.285Z,97610.1
2023-02-19T01:13:22.582Z,97621.44
2023-02-19T01:14:22.812Z,97607.27
2023-02-19T01:15:23.348Z,97614.24
2023-02-19T01:16:24.225Z,97611.58
2023-02-19T01:17:24.453Z,97616.62
2023-02-19T01:18:24.270Z,97618.48
2023-02-19T01:19:25.991Z,97617.48
2023-02-19T01:20:25.201Z,97606.29
2023-02-19T01:21:27.683Z,97609.59
2023-02-19T01:22:25.599Z,97612.6
2023-02-19T01:23:26.560Z,97618.28
2023-02-19T01:24:26.141Z,97621.55
2023-02-19T01:25:26.663Z,97617.3
2023-02-19T01:27:29.551Z,97626.26
2023-02-19T01:28:29.744Z,97626.44
2023-02-19T01:29:30.072Z,97630.38
2023-02-19T01:30:30.644Z,97630.14
2023-02-19T01:31:31.389Z,97625.95
2023-02-19T01:32:31.017Z,97630.27
2023-02-19T01:33:32.240Z,97632.89
2023-02-19T01:34:31.843Z,97635.7
2023-02-19T01:35:32.148Z,97631.86
2023-02-19T01:36:34.344Z,97629.09
2023-02-19T01:37:32.687Z,97647.09
2023-02-19T01:38:33.608Z,97659.14
2023-02-19T01:39:33.298Z,97645.64
2023-02-19T01:40:33.931Z,97645.8
2023-02-19T01:42:36.091Z,97643.2
2023-02-19T01:45:42.981Z,97643.64
2023-02-19T01:46:42.470Z,97641.8
2023-02-19T01:47:40.858Z,97641.76
2023-02-19T01:48:41.472Z,97645.78
2023-02-19T01:50:49.759Z,97642.94
2023-02-19T01:51:53.361Z,97648.48
2023-02-19T01:52:51.080Z,97649.28
2023-02-19T01:53:57.366Z,97645.03
2023-02-19T01:54:56.064Z,97648.55
2023-02-19T01:55:58.201Z,97645.2
2023-02-19T01:56:56.761Z,97652.7
2023-02-19T01:57:56.375Z,97647.92
2023-02-19T01:58:56.584Z,97650.09
2023-02-19T02:00:04.073Z,97655.56
2023-02-19T02:01:04.728Z,97650.08
2023-02-19T02:02:02.728Z,97656.55
2023-02-19T02:03:04.180Z,97650.87
2023-02-19T02:04:05.422Z,97648.25
2023-02-19T02:05:04.098Z,97657.41
2023-02-19T02:07:07.492Z,97653.39
2023-02-19T02:08:06.210Z,97654.54
2023-02-19T02:09:06.783Z,97653.37
2023-02-19T02:10:07.497Z,97650.8
2023-02-19T02:11:07.046Z,97652.83
2023-02-19T02:12:08.245Z,97669.5
2023-02-19T02:13:07.843Z,97658.86
2023-02-19T02:14:08.244Z,97654.72
2023-02-19T02:15:09.497Z,97661.08
2023-02-19T02:37:04.505Z,97680.7
2023-02-19T02:39:08.828Z,97672.85
2023-02-19T02:40:08.935Z,97681.66
2023-02-19T02:41:07.114Z,97689.33
2023-02-19T02:42:06.689Z,97685.91
2023-02-19T02:43:07.216Z,97674.47
2023-02-19T02:44:07.539Z,97685.97
2023-02-19T02:46:13.369Z,97686.61
2023-02-19T02:47:11.822Z,97690.94
2023-02-19T02:52:23.457Z,97691.94
2023-02-19T02:54:29.817Z,97690.94
2023-02-19T02:55:31.564Z,97694.85
2023-02-19T02:56:30.335Z,97696.75
2023-02-19T02:57:29.736Z,97692.38
2023-02-19T02:58:31.480Z,97704.88
2023-02-19T02:59:34.906Z,97706.77
2023-02-19T03:00:35.282Z,97694.65
2023-02-19T03:01:41.535Z,97700.62
2023-02-19T03:02:35.176Z,97698.12
2023-02-19T03:03:38.476Z,97698.12
2023-02-19T03:05:36.536Z,97699.06
2023-02-19T03:06:38.095Z,97705.59
2023-02-19T03:09:43.635Z,97707.81
2023-02-19T03:12:51.955Z,97713.98
2023-02-19T03:17:01.815Z,97713.41
2023-02-19T03:18:04.485Z,97717.12
2023-02-19T03:19:04.575Z,97718.81
2023-02-19T03:20:06.842Z,97714.98
2023-02-19T03:21:07.536Z,97707.48
2023-02-19T03:23:11.166Z,97729.7
2023-02-19T03:24:11.872Z,97713.12
2023-02-19T03:26:13.742Z,97719.59
2023-02-19T03:27:14.678Z,97720.67
2023-02-19T03:28:15.483Z,97720.38
2023-02-19T03:29:15.091Z,97723.35
2023-02-19T03:30:21.292Z,97736.64
2023-02-19T03:31:22.995Z,97721.97
2023-02-19T03:32:29.142Z,97729.28
2023-02-19T03:33:28.742Z,97725.05
2023-02-19T03:34:34.790Z,97730.19
2023-02-19T03:35:33.298Z,97723.82
2023-02-19T03:39:39.891Z,97734.66
2023-02-19T03:40:52.940Z,97733.58
2023-02-19T03:55:22.962Z,97746.3
2023-02-19T04:05:43.195Z,97762.85
2023-02-19T04:06:44.735Z,97765.46
2023-02-19T04:07:46.364Z,97767.72
2023-02-19T04:08:50.782Z,97756.91
2023-02-19T04:09:51.743Z,97768.48
2023-02-19T04:10:50.788Z,97763.45
2023-02-19T04:11:51.823Z,97759.77
2023-02-19T04:12:56.859Z,97761.62
2023-02-19T04:19:14.323Z,97755.07
2023-02-19T04:20:13.799Z,97758.12
2023-02-19T04:21:12.932Z,97755.48
2023-02-19T04:22:13.199Z,97765.43
2023-02-19T04:25:20.155Z,97759.32
2023-02-19T04:26:22.964Z,97757.45
2023-02-19T04:27:20.381Z,97761.92
2023-02-19T04:28:20.714Z,97759.73
2023-02-19T04:29:21.015Z,97770.34
2023-02-19T04:30:21.896Z,97756.55
2023-02-19T04:31:22.074Z,97758.83
2023-02-19T04:32:22.066Z,97770.39
2023-02-19T04:33:22.481Z,97761.61
2023-02-19T04:34:22.800Z,97774.73
2023-02-19T04:35:23.120Z,97769.2
2023-02-19T04:36:23.416Z,97768.36
2023-02-19T04:37:23.534Z,97768.36
2023-02-19T04:38:24.042Z,97758.12
2023-02-19T04:39:24.472Z,97771.23
2023-02-19T04:40:24.778Z,97778.64
2023-02-19T04:41:25.090Z,97766.28
2023-02-19T04:42:25.304Z,97769.12
2023-02-19T04:43:25.716Z,97764.22
2023-02-19T04:44:26.236Z,97767.77
2023-02-19T04:45:26.553Z,97770.95
2023-02-19T04:46:26.656Z,97770.75
2023-02-19T04:47:26.981Z,97768.78
2023-02-19T04:48:27.383Z,97768.4
2023-02-19T04:49:27.834Z,97771.81
2023-02-19T04:50:28.113Z,97767.91
2023-02-19T04:51:28.327Z,97774.83
2023-02-19T04:52:28.742Z,97771.33
2023-02-19T04:53:28.984Z,97781.84
2023-02-19T04:54:29.171Z,97775.69
2023-02-19T04:55:29.590Z,97778.95
2023-02-19T04:56:29.981Z,97775.09
2023-02-19T04:57:30.320Z,97777.93
2023-02-19T04:58:31.761Z,97781.69
2023-02-19T04:59:31.143Z,97779.45
2023-02-19T05:00:31.971Z,97774.94
2023-02-19T05:01:31.601Z,97781.09
2023-02-19T05:02:31.888Z,97776.09
2023-02-19T05:03:32.705Z,97777.66
2023-02-19T05:04:32.891Z,97786.3
2023-02-19T05:05:33.146Z,97789.27
2023-02-19T05:06:33.235Z,97782.51
2023-02-19T05:07:33.868Z,97779.52
2023-02-19T05:08:34.196Z,97782.83
2023-02-19T05:09:34.300Z,97783.38
2023-02-19T05:10:34.498Z,97789.2
2023-02-19T05:11:35.016Z,97789.87
2023-02-19T05:12:35.135Z,97795.45
2023-02-19T05:13:35.598Z,97790.77
2023-02-19T05:14:35.854Z,97799.49
2023-02-19T05:15:36.508Z,97795.95
2023-02-19T05:16:36.487Z,97795.13
2023-02-19T05:17:37.004Z,97802.29
2023-02-19T05:18:37.323Z,97801.91
2023-02-19T05:19:37.527Z,97801.6
2023-02-19T05:20:37.744Z,97810.61
2023-02-19T05:21:38.155Z,97803.21
2023-02-19T05:22:38.460Z,97797.86
2023-02-19T05:23:39.095Z,97809.06
2023-02-19T05:24:39.297Z,97785.64
2023-02-19T05:25:39.503Z,97806.47
2023-02-19T05:26:39.831Z,97800.09
2023-02-19T05:27:40.047Z,97806.5
2023-02-19T05:28:40.429Z,97809.94
2023-02-19T05:29:40.766Z,97806.16
2023-02-19T05:30:41.192Z,97796.05
2023-02-19T05:31:41.762Z,97802.56
2023-02-19T05:32:41.817Z,97795.73
2023-02-19T05:33:42.534Z,97808.46
2023-02-19T05:34:42.436Z,97808.02
2023-02-19T05:36:45.225Z,97809.64
2023-02-19T05:37:45.545Z,97807.73
2023-02-19T05:38:46.300Z,97803.23
2023-02-19T05:39:46.052Z,97812.75
2023-02-19T05:40:47.091Z,97813.62
2023-02-19T05:41:46.891Z,97813.69
2023-02-19T05:42:47.209Z,97814.84
2023-02-19T05:43:48.940Z,97815.58
2023-02-19T05:44:47.933Z,97819.67
2023-02-19T05:45:48.044Z,97810.97
2023-02-19T05:46:48.550Z,97818.95
2023-02-19T05:47:48.992Z,97814.64
2023-02-19T05:48:51.123Z,97809.61
2023-02-19T05:49:49.399Z,97816.88
2023-02-19T05:50:49.817Z,97817.42
2023-02-19T05:51:53.097Z,97818.8
2023-02-19T05:52:50.537Z,97819.38
2023-02-19T05:53:51.503Z,97818.36
2023-02-19T05:54:51.071Z,97824.66
2023-02-19T05:55:51.486Z,97820.25
2023-02-19T05:56:51.911Z,97833.36
2023-02-19T05:57:51.998Z,97817.83
2023-02-19T05:58:53.455Z,97832.05
2023-02-19T05:59:52.734Z,97827.95
2023-02-19T06:00:53.150Z,97835.05
2023-02-19T06:01:54.918Z,97830.7
2023-02-19T06:02:54.525Z,97829.38
2023-02-19T06:03:57.215Z,97827.23
2023-02-19T06:04:55.341Z,97837.03
2023-02-19T06:05:56.049Z,97839.62
2023-02-19T06:06:55.543Z,97835.34
2023-02-19T06:07:55.750Z,97845.73
2023-02-19T06:08:56.185Z,97836.03
2023-02-19T06:09:56.485Z,97838.91
2023-02-19T06:10:58.236Z,97832.27
2023-02-19T06:11:57.329Z,97836.95
2023-02-19T06:12:57.529Z,97841.92
2023-02-19T06:13:57.965Z,97844.8
2023-02-19T06:14:58.182Z,97844.15
2023-02-19T06:15:58.624Z,97852.16
2023-02-19T06:16:59.016Z,97844.25
2023-02-19T06:17:59.222Z,97854.5
2023-02-19T06:19:00.630Z,97853.6
2023-02-19T06:20:00.038Z,97849.06
2023-02-19T06:22:03.537Z,97847.25
2023-02-19T06:23:03.753Z,97854.14
2023-02-19T06:25:07.563Z,97848.7
2023-02-19T06:27:10.434Z,97839.02
2023-02-19T06:28:10.221Z,97857.06
2023-02-19T06:29:10.744Z,97852.84
2023-02-19T06:30:12.058Z,97847.58
2023-02-19T06:31:12.332Z,97847.17
2023-02-19T06:32:11.825Z,97857.86
2023-02-19T06:33:12.104Z,97861.59
2023-02-19T06:34:12.434Z,97861.45
2023-02-19T06:35:12.750Z,97859.48
2023-02-19T06:36:16.149Z,97859.41
2023-02-19T06:37:13.469Z,97860.02
2023-02-19T06:38:13.880Z,97854.98
2023-02-19T06:39:14.306Z,97848.91
2023-02-19T06:40:14.518Z,97857.25
2023-02-19T06:41:15.445Z,97856
2023-02-19T06:42:15.143Z,97858.17
2023-02-19T06:43:15.649Z,97856.66
2023-02-19T06:44:15.982Z,97856.99
2023-02-19T06:45:16.392Z,97860.23
2023-02-19T06:46:16.517Z,97864.33
2023-02-19T06:47:16.810Z,97861.62
2023-02-19T06:48:17.140Z,97862.1
2023-02-19T06:49:17.648Z,97869.38
2023-02-19T06:50:17.769Z,97861.38
2023-02-19T06:51:20.015Z,97867.49
2023-02-19T06:52:18.381Z,97867.77
2023-02-19T06:53:18.820Z,97859.5
2023-02-19T06:54:19.010Z,97867.65
2023-02-19T06:55:19.523Z,97871.41
2023-02-19T06:57:24.452Z,97866.99
2023-02-19T06:58:25.075Z,97864.47
2023-02-19T06:59:25.908Z,97865.56
2023-02-19T07:00:25.610Z,97871.53
2023-02-19T07:01:26.113Z,97868.23
2023-02-19T07:02:26.129Z,97868.08
2023-02-19T07:03:26.757Z,97878.26
2023-02-19T07:04:27.192Z,97877.08
2023-02-19T07:05:27.179Z,97888.19
2023-02-19T07:06:28.826Z,97861.8
2023-02-19T07:07:27.709Z,97872.57
2023-02-19T07:08:29.649Z,97887.99
2023-02-19T07:09:28.644Z,97876.79
2023-02-19T07:10:28.838Z,97875.56
2023-02-19T07:12:30.906Z,97878.28
2023-02-19T07:13:31.423Z,97885.4
2023-02-19T07:14:31.840Z,97879.81
2023-02-19T07:15:31.737Z,97879.12
2023-02-19T07:16:32.123Z,97882.58
2023-02-19T07:17:33.910Z,97878.08
2023-02-19T07:18:32.775Z,97880.91
2023-02-19T07:19:33.807Z,97881.17
2023-02-19T07:20:33.678Z,97889.33
2023-02-19T07:21:33.823Z,97894.96
2023-02-19T07:22:34.235Z,97888.95
2023-02-19T07:23:34.972Z,97883.2
2023-02-19T07:24:34.851Z,97884.86
2023-02-19T07:25:35.284Z,97886.48
2023-02-19T07:26:36.642Z,97882.26
2023-02-19T07:27:35.827Z,97893.77
2023-02-19T07:28:36.326Z,97897.8
2023-02-19T07:29:36.445Z,97892.42
2023-02-19T07:30:36.913Z,97897.45
2023-02-19T07:31:37.300Z,97895.06
2023-02-19T07:32:41.611Z,97892.55
2023-02-19T07:33:39.124Z,97894.98
2023-02-19T07:34:39.543Z,97897.41
2023-02-19T07:36:42.526Z,97894.95
2023-02-19T07:37:43.148Z,97908.28
2023-02-19T07:38:43.774Z,97901.59
2023-02-19T07:39:43.679Z,97905.58
2023-02-19T07:41:47.582Z,97901.09
2023-02-19T07:42:47.991Z,97906.08
2023-02-19T07:43:48.220Z,97904.28
2023-02-19T07:44:48.723Z,97894.95
2023-02-19T07:45:49.040Z,97906.27
2023-02-19T07:46:49.264Z,97903.28
2023-02-19T07:47:49.566Z,97902.36
2023-02-19T07:48:50.097Z,97902.89
2023-02-19T07:49:50.498Z,97904.17
2023-02-19T07:51:53.265Z,97905.52
2023-02-19T07:52:53.688Z,97894.82
2023-02-19T07:53:54.010Z,97898.05
2023-02-19T07:54:54.337Z,97901.8
2023-02-19T07:55:58.527Z,97907.28
2023-02-19T07:56:56.074Z,97899.21
2023-02-19T07:57:58.649Z,97905.27
2023-02-19T07:58:56.711Z,97901.52
2023-02-19T07:59:57.039Z,97899.52
2023-02-19T08:00:57.669Z,97905.05
2023-02-19T08:01:57.548Z,97906.64
2023-02-19T08:02:57.859Z,97908.12
2023-02-19T08:03:58.190Z,97909.22
2023-02-19T08:04:58.489Z,97905.3
2023-02-19T08:05:58.690Z,97907.45
2023-02-19T08:06:59.525Z,97908.34
2023-02-19T08:08:00.551Z,97907.56
2023-02-19T08:08:59.750Z,97909.12
2023-02-19T08:10:00.577Z,97912.27
2023-02-19T08:11:02.211Z,97912.55
2023-02-19T08:12:00.700Z,97915.06
2023-02-19T08:13:01.601Z,97918.52
2023-02-19T08:14:01.304Z,97912.98
2023-02-19T08:15:01.844Z,97910.44
2023-02-19T08:17:05.891Z,97910.64
2023-02-19T08:18:06.141Z,97917.62
2023-02-19T08:19:06.667Z,97917.78
2023-02-19T08:20:08.112Z,97918.63
2023-02-19T08:21:07.403Z,97921.92
2023-02-19T08:22:07.523Z,97922.39
2023-02-19T08:23:08.639Z,97921.27
2023-02-19T08:24:08.463Z,97921.5
2023-02-19T08:25:08.965Z,97920.56
2023-02-19T08:26:08.893Z,97924.2
2023-02-19T08:27:09.291Z,97918.2
2023-02-19T08:28:11.308Z,97927.89
2023-02-19T08:29:10.003Z,97921.09
2023-02-19T08:30:11.358Z,97930.38
2023-02-19T08:31:13.045Z,97930.68
2023-02-19T08:32:10.980Z,97933.38
2023-02-19T08:33:13.507Z,97927.55
2023-02-19T08:34:11.465Z,97929.61
2023-02-19T08:35:12.095Z,97930.88
2023-02-19T08:36:12.217Z,97932.59
2023-02-19T08:37:12.424Z,97933.39
2023-02-19T08:38:13.962Z,97931.22
2023-02-19T08:39:13.044Z,97932.84
2023-02-19T08:40:13.775Z,97940.54
2023-02-19T08:41:14.985Z,97936.08
2023-02-19T08:42:14.184Z,97938.39
2023-02-19T08:43:16.668Z,97934.31
2023-02-19T08:44:14.802Z,97936.28
2023-02-19T08:45:15.444Z,97927.3
2023-02-19T08:46:15.694Z,97932.16
2023-02-19T08:47:15.757Z,97937.55
2023-02-19T08:48:16.174Z,97937.22
2023-02-19T08:49:16.494Z,97935.5
2023-02-19T08:50:17.112Z,97937.11
2023-02-19T08:51:17.234Z,97938.39
2023-02-19T08:52:17.424Z,97937.72
2023-02-19T08:53:17.863Z,97939.35
2023-02-19T08:54:18.260Z,97943.47
2023-02-19T08:55:19.075Z,97950.41
2023-02-19T08:56:18.782Z,97941.7
2023-02-19T08:57:19.201Z,97942.43
2023-02-19T08:58:19.403Z,97946.94
2023-02-19T08:59:19.924Z,97943.84
2023-02-19T09:00:20.443Z,97946.16
2023-02-19T09:01:20.369Z,97944.52
2023-02-19T09:02:20.869Z,97944.7
2023-02-19T09:03:21.025Z,97955.52
2023-02-19T09:04:21.493Z,97943.94
2023-02-19T09:05:21.921Z,97950.05
2023-02-19T09:06:22.057Z,97934.7
2023-02-19T09:07:22.830Z,97946.06
2023-02-19T09:08:22.763Z,97946.06
2023-02-19T09:09:22.929Z,97952.03
2023-02-19T09:10:23.407Z,97954.28
2023-02-19T09:11:23.806Z,97952.34
2023-02-19T09:12:24.593Z,97950.7
2023-02-19T09:13:24.416Z,97949.72
2023-02-19T09:14:24.738Z,97946.34
2023-02-19T09:15:25.222Z,97951.65
2023-02-19T09:16:25.696Z,97951.48
2023-02-19T09:17:26.083Z,97961.44
2023-02-19T09:18:26.122Z,97955.91
2023-02-19T09:19:27.014Z,97954.82
2023-02-19T09:20:28.161Z,97959.15
2023-02-19T09:21:27.247Z,97962.18
2023-02-19T09:22:27.448Z,97955.36
2023-02-19T09:23:27.853Z,97956.94
2023-02-19T09:24:28.083Z,97962.73
2023-02-19T09:25:28.358Z,97955.61
2023-02-19T09:26:28.703Z,97963.27
2023-02-19T09:27:29.129Z,97961.34
2023-02-19T09:28:29.338Z,97957.09
2023-02-19T09:29:30.361Z,97955.59
2023-02-19T09:30:30.126Z,97960.3
2023-02-19T09:31:30.643Z,97961.2
2023-02-19T09:32:31.619Z,97960.78
2023-02-19T09:33:31.107Z,97958
2023-02-19T09:34:31.930Z,97957.01
2023-02-19T09:35:31.839Z,97960.34
2023-02-19T09:36:32.051Z,97963.58
2023-02-19T09:37:34.079Z,97961.08
2023-02-19T09:38:33.812Z,97968.24
2023-02-19T09:39:34.533Z,97968.42
2023-02-19T09:40:36.377Z,97970.69
2023-02-19T09:41:37.761Z,97967.36
2023-02-19T09:42:35.472Z,97966.12
2023-02-19T09:43:37.124Z,97969.5
2023-02-19T09:44:39.176Z,97970.23
2023-02-19T09:45:37.648Z,97967.62
2023-02-19T09:46:45.824Z,97972.77
2023-02-19T09:47:38.483Z,97971.25
2023-02-19T09:48:38.481Z,97971.26
2023-02-19T09:49:43.306Z,97968.67
2023-02-19T09:50:45.970Z,97972.84
2023-02-19T09:51:48.820Z,97973.5
2023-02-19T09:52:53.049Z,97976.86
2023-02-19T09:53:52.024Z,97972.32
2023-02-19T09:54:51.749Z,97969.91
2023-02-19T09:55:52.847Z,97966.13
2023-02-19T09:56:53.157Z,97973.05
2023-02-19T09:57:52.656Z,97977.13
2023-02-19T09:58:58.624Z,97974.33
2023-02-19T10:00:59.044Z,97973.39
2023-02-19T10:03:06.926Z,97977.64
2023-02-19T10:04:04.895Z,97980.48
2023-02-19T10:05:12.743Z,97973.02
2023-02-19T10:06:18.420Z,97974.85
2023-02-19T10:07:05.844Z,97974.25
2023-02-19T10:08:13.314Z,97974.5
2023-02-19T10:09:24.770Z,97982.65
2023-02-19T10:11:14.796Z,97981.3
2023-02-19T10:12:18.355Z,97974.77
2023-02-19T10:15:31.916Z,97979.09
2023-02-19T10:16:27.085Z,97973.7
2023-02-19T10:17:29.124Z,97976.58
2023-02-19T10:18:29.369Z,97978.2
2023-02-19T10:19:27.318Z,97979.34
2023-02-19T10:20:27.640Z,97976.17
2023-02-19T10:21:28.758Z,97975.89
2023-02-19T10:22:27.944Z,97976.55
2023-02-19T10:23:29.055Z,97972.38
2023-02-19T10:24:30.739Z,97975.98
2023-02-19T10:25:30.335Z,97975.58
2023-02-19T10:26:29.403Z,97975.43
2023-02-19T10:27:32.495Z,97976.94
2023-02-19T10:28:33.192Z,97977.7
2023-02-19T10:29:30.552Z,97971.03
2023-02-19T10:30:35.933Z,97970.94
2023-02-19T10:31:34.082Z,97970.92
2023-02-19T10:32:33.863Z,97973.74
2023-02-19T10:33:47.486Z,97972.73
2023-02-19T10:34:34.884Z,97967.3
2023-02-19T10:36:42.081Z,97969.07
2023-02-19T10:38:48.045Z,97968.84
2023-02-19T10:39:50.595Z,97973.81
2023-02-19T10:40:48.951Z,97970.94
2023-02-19T10:41:52.865Z,97967.86
2023-02-19T10:42:53.590Z,97966.01
2023-02-19T10:45:58.514Z,97974.89
2023-02-19T10:46:59.948Z,97976.19
2023-02-19T10:47:58.433Z,97976.7
2023-02-19T10:50:04.748Z,97970.48
2023-02-19T10:51:07.270Z,97975.25
2023-02-19T10:56:25.962Z,97981.45
2023-02-19T10:58:25.433Z,97973.11
2023-02-19T10:59:27.682Z,97976.54
2023-02-19T11:00:27.284Z,97966.77
2023-02-19T11:01:25.576Z,97980.69
2023-02-19T11:02:26.474Z,97973.84
2023-02-19T11:03:25.875Z,97971.12
2023-02-19T11:04:28.377Z,97979.34
2023-02-19T11:05:26.691Z,97979.78
2023-02-19T11:06:27.415Z,97977.09
2023-02-19T11:07:28.152Z,97978.81
2023-02-19T11:08:29.376Z,97983.55
2023-02-19T11:10:33.385Z,97976.17
2023-02-19T11:11:40.052Z,97975.81
2023-02-19T11:12:34.656Z,97980.42
2023-02-19T11:13:35.353Z,97981.48
2023-02-19T11:14:34.772Z,97988.33
2023-02-19T11:15:37.410Z,97985.98
2023-02-19T11:17:37.536Z,97985.61
2023-02-19T11:18:37.958Z,97997.23
2023-02-19T11:19:44.500Z,97978.09
2023-02-19T11:21:43.969Z,97981.89
2023-02-19T11:22:45.445Z,97981.27
2023-02-19T11:23:47.014Z,97982.59
2023-02-19T11:24:49.768Z,97979.91
2023-02-19T11:25:52.339Z,97978.82
2023-02-19T11:26:49.911Z,97981.6
2023-02-19T11:29:01.270Z,97984.34
2023-02-19T11:29:53.689Z,97985.69
2023-02-19T11:30:54.146Z,97971.66
2023-02-19T11:31:54.952Z,97987.23
2023-02-19T11:32:54.730Z,97981.22
2023-02-19T11:38:10.436Z,97988.64
2023-02-19T11:40:12.559Z,97985.38
2023-02-19T11:53:54.979Z,97990.38
2023-02-19T11:54:54.124Z,97985.57
2023-02-19T12:44:08.501Z,97994.67
2023-02-19T12:45:08.323Z,97997.14
2023-02-19T12:47:07.302Z,97996.59
2023-02-19T12:51:21.351Z,97992.48
2023-02-19T12:52:21.570Z,97990.92
2023-02-19T12:55:27.830Z,97997.51
2023-02-19T12:57:25.201Z,98002.4
2023-02-19T12:58:32.266Z,98001.61
2023-02-19T13:09:06.341Z,98016.12
2023-02-19T13:19:14.896Z,98007.1
2023-02-19T13:21:20.129Z,98013.27
2023-02-19T13:36:43.989Z,98007.43
2023-02-19T13:37:44.808Z,98003.73
2023-02-19T13:38:47.472Z,98007.05
2023-02-19T13:41:55.795Z,98006.98
2023-02-19T13:42:59.587Z,98002.89
2023-02-19T13:44:00.931Z,98014.33
2023-02-19T13:44:59.393Z,98015.12
2023-02-19T13:47:00.729Z,98009.72
2023-02-19T13:54:33.210Z,98011.86
2023-02-19T13:56:37.761Z,98010.72
2023-02-19T13:57:35.171Z,98017.41
2023-02-19T13:59:38.934Z,98017.1
2023-02-19T14:02:38.565Z,98014.02
2023-02-19T14:04:47.751Z,98004.22
2023-02-19T14:07:55.575Z,98015.81
2023-02-19T14:08:56.281Z,98018.58
2023-02-19T14:09:54.658Z,98004.91
2023-02-19T14:10:56.492Z,98010.48
2023-02-19T14:12:58.250Z,98011.39
2023-02-19T14:13:59.689Z,98006.28
2023-02-19T14:16:00.745Z,98012.65
2023-02-19T14:18:02.991Z,98014.01
2023-02-19T14:19:03.898Z,98015.7
2023-02-19T14:24:14.891Z,98011.52
2023-02-19T14:26:16.252Z,98011.19
2023-02-19T14:27:16.668Z,98017.66
2023-02-19T14:29:21.800Z,98015.02
2023-02-19T14:30:23.873Z,98019.22
2023-02-19T14:31:33.390Z,98014.14
2023-02-19T14:32:26.328Z,98016.18
2023-02-19T14:33:32.272Z,98012.93
2023-02-19T14:34:30.405Z,98012.68
2023-02-19T14:35:40.583Z,98014.45
2023-02-19T14:36:39.477Z,98012.13
2023-02-19T14:37:37.229Z,98013.86
2023-02-19T14:38:47.984Z,98011.72
2023-02-19T14:39:40.811Z,98014.52
2023-02-19T14:40:42.249Z,98016.22
2023-02-19T14:41:45.841Z,98011.59
2023-02-19T14:42:43.482Z,98014.75
2023-02-19T14:43:45.343Z,98019.52
2023-02-19T14:45:53.440Z,98017.03
2023-02-19T14:47:56.835Z,98016.38
2023-02-19T14:48:55.712Z,98014.27
2023-02-19T14:53:07.322Z,98023.95
2023-02-19T14:57:27.609Z,98022.42
2023-02-19T14:58:32.852Z,98019.38
2023-02-19T14:59:29.975Z,98011.92
2023-02-19T15:01:28.432Z,98017.85
2023-02-19T15:05:37.099Z,98022.3
2023-02-19T15:06:35.772Z,98021.38
2023-02-19T15:07:34.956Z,98015.58
2023-02-19T15:10:43.669Z,98021.39
2023-02-19T15:11:43.779Z,98027.8
2023-02-19T15:13:52.005Z,98025.77
2023-02-19T15:14:51.377Z,98029.8
2023-02-19T15:15:49.992Z,98039.72
2023-02-19T15:16:56.820Z,98029.56
2023-02-19T15:17:55.719Z,98029.14
2023-02-19T15:18:56.122Z,98031.47
2023-02-19T15:19:57.354Z,98028.7
2023-02-19T15:21:04.010Z,98030.05
2023-02-19T15:21:56.648Z,98035.59
2023-02-19T15:22:59.110Z,98036.38
2023-02-19T15:24:00.347Z,98032.91
2023-02-19T15:25:05.289Z,98035.47
2023-02-19T15:26:02.933Z,98041.3
2023-02-19T15:27:03.751Z,98036.67
2023-02-19T15:31:15.736Z,98038.09
2023-02-19T15:32:21.705Z,98045.07
2023-02-19T15:33:20.738Z,98044.9
2023-02-19T15:35:21.931Z,98043.31
2023-02-19T15:37:25.937Z,98050.5
2023-02-19T15:38:24.840Z,98054.34
2023-02-19T15:39:28.088Z,98053.97
2023-02-19T15:40:30.667Z,98047.2
2023-02-19T15:41:32.309Z,98058.33
2023-02-19T15:42:36.414Z,98057.5
2023-02-19T15:45:44.236Z,98058.82
2023-02-19T15:46:43.950Z,98058.98
2023-02-19T15:47:48.527Z,98067.97
2023-02-19T15:48:56.919Z,98058.47
2023-02-19T15:50:59.504Z,98060.47
2023-02-19T15:56:15.920Z,98067.25
2023-02-19T15:57:17.684Z,98069.73
2023-02-19T16:01:26.659Z,98083.27
2023-02-19T16:02:25.797Z,98090.27
2023-02-19T16:03:27.336Z,98085.19
2023-02-19T16:04:25.192Z,98086.39
2023-02-19T16:05:27.645Z,98089.2
2023-02-19T16:06:27.248Z,98089.38
2023-02-19T16:07:28.394Z,98089.53
2023-02-19T16:08:34.751Z,98082.42
2023-02-19T16:09:36.560Z,98091.58
2023-02-19T16:10:29.024Z,98095.58
2023-02-19T16:12:33.952Z,98104.98
2023-02-19T16:13:35.014Z,98106.59
2023-02-19T16:14:35.908Z,98104.75
2023-02-19T16:15:34.438Z,98107.45
2023-02-19T16:16:39.196Z,98115.28
2023-02-19T16:17:36.544Z,98106.67
2023-02-19T16:18:37.061Z,98115.64
2023-02-19T16:20:47.946Z,98123.8
2023-02-19T16:21:45.484Z,98125.86
2023-02-19T16:22:45.894Z,98129.48
2023-02-19T16:23:48.879Z,98127.64
2023-02-19T16:24:49.589Z,98136.34
2023-02-19T16:25:48.268Z,98138.03
2023-02-19T16:26:47.465Z,98136.61
2023-02-19T16:27:47.775Z,98129.46
2023-02-19T16:28:52.382Z,98138.57
2023-02-19T16:29:51.563Z,98134.68
2023-02-19T16:30:58.530Z,98134.81
2023-02-19T16:31:57.571Z,98129.22
2023-02-19T16:33:55.187Z,98141.14